createdAt,value
2019-03-30T00:01:22.255Z,4.40
2019-03-30T00:03:49.307Z,4.40
2019-03-30T00:06:17.071Z,4.30
2019-03-30T00:08:44.017Z,4.30
2019-03-30T00:11:10.858Z,4.30
2019-03-30T00:13:37.599Z,4.30
2019-03-30T00:16:05.174Z,4.30
2019-03-30T00:18:32.001Z,4.30
2019-03-30T00:20:59.054Z,4.30
2019-03-30T00:23:26.425Z,4.30
2019-03-30T00:25:54.785Z,4.30
2019-03-30T00:28:21.629Z,4.20
2019-03-30T00:30:48.474Z,4.20
2019-03-30T00:33:15.314Z,4.20
2019-03-30T00:35:42.768Z,4.20
2019-03-30T00:38:09.715Z,4.20
2019-03-30T00:40:36.761Z,4.30
2019-03-30T00:43:03.708Z,4.20
2019-03-30T00:45:30.552Z,4.30
2019-03-30T00:47:57.906Z,4.20
2019-03-30T00:50:24.645Z,4.20
2019-03-30T00:52:51.590Z,4.20
2019-03-30T00:55:18.742Z,4.20
2019-03-30T00:57:45.481Z,4.20
2019-03-30T01:00:12.634Z,4.20
2019-03-30T01:02:39.507Z,4.30
2019-03-30T01:05:08.368Z,4.30
2019-03-30T01:07:37.002Z,4.20
2019-03-30T01:10:05.359Z,4.30
2019-03-30T01:12:32.107Z,4.30
2019-03-30T01:14:58.857Z,4.30
2019-03-30T01:17:25.754Z,4.40
2019-03-30T01:20:02.708Z,4.40
2019-03-30T01:22:19.672Z,4.40
2019-03-30T01:24:47.190Z,4.40
2019-03-30T01:27:13.766Z,4.30
2019-03-30T01:29:41.506Z,4.30
2019-03-30T01:32:08.716Z,4.30
2019-03-30T01:34:36.524Z,4.40
2019-03-30T01:37:03.365Z,4.40
2019-03-30T01:39:31.437Z,4.30
2019-03-30T01:41:59.406Z,4.30
2019-03-30T01:44:26.865Z,4.20
2019-03-30T01:46:53.810Z,4.30
2019-03-30T01:49:20.756Z,4.40
2019-03-30T01:51:48.014Z,4.40
2019-03-30T01:54:15.776Z,4.40
2019-03-30T01:56:42.559Z,4.30
2019-03-30T01:59:10.174Z,4.20
2019-03-30T02:01:36.913Z,4.20
2019-03-30T02:04:03.756Z,4.30
2019-03-30T02:06:30.601Z,4.20
2019-03-30T02:08:57.330Z,4.20
2019-03-30T02:11:24.188Z,4.20
2019-03-30T02:13:50.909Z,4.30
2019-03-30T02:16:17.868Z,4.30
2019-03-30T02:18:44.823Z,4.20
2019-03-30T02:21:11.866Z,4.20
2019-03-30T02:23:38.704Z,4.20
2019-03-30T02:26:06.369Z,4.20
2019-03-30T02:28:33.478Z,4.20
2019-03-30T02:31:00.552Z,4.30
2019-03-30T02:33:27.309Z,4.20
2019-03-30T02:35:54.155Z,4.10
2019-03-30T02:38:20.972Z,4.10
2019-03-30T02:40:47.940Z,4.10
2019-03-30T02:43:14.785Z,4.10
2019-03-30T02:45:41.643Z,4.10
2019-03-30T02:48:08.391Z,4.10
2019-03-30T02:50:48.156Z,4.10
2019-03-30T02:53:02.113Z,4.10
2019-03-30T02:55:28.895Z,4.00
2019-03-30T02:57:55.636Z,4.00
2019-03-30T03:00:22.590Z,4.00
2019-03-30T03:02:49.304Z,3.90
2019-03-30T03:05:16.166Z,4.00
2019-03-30T03:07:43.009Z,3.90
2019-03-30T03:10:09.855Z,3.90
2019-03-30T03:12:36.532Z,3.90
2019-03-30T03:15:04.047Z,3.80
2019-03-30T03:17:30.890Z,3.80
2019-03-30T03:19:58.448Z,3.80
2019-03-30T03:22:25.193Z,3.80
2019-03-30T03:24:52.341Z,3.80
2019-03-30T03:27:19.398Z,3.80
2019-03-30T03:29:47.330Z,3.80
2019-03-30T03:32:14.627Z,3.80
2019-03-30T03:34:41.966Z,3.80
2019-03-30T03:37:09.062Z,3.80
2019-03-30T03:39:36.559Z,3.80
2019-03-30T03:42:04.953Z,3.70
2019-03-30T03:44:31.690Z,3.70
2019-03-30T03:46:58.453Z,3.70
2019-03-30T03:49:25.280Z,3.70
2019-03-30T03:51:52.102Z,3.60
2019-03-30T03:54:18.959Z,3.60
2019-03-30T03:56:45.911Z,3.60
2019-03-30T03:59:12.760Z,3.60
2019-03-30T04:01:39.596Z,3.50
2019-03-30T04:04:06.442Z,3.50
2019-03-30T04:06:33.490Z,3.50
2019-03-30T04:09:00.345Z,3.50
2019-03-30T04:11:27.149Z,3.40
2019-03-30T04:13:54.018Z,3.40
2019-03-30T04:16:20.754Z,3.30
2019-03-30T04:18:48.397Z,3.30
2019-03-30T04:21:15.262Z,3.20
2019-03-30T04:23:42.001Z,3.20
2019-03-30T04:26:08.750Z,3.20
2019-03-30T04:28:35.685Z,3.20
2019-03-30T04:33:36.127Z,3.20
2019-03-30T04:36:02.976Z,3.20
2019-03-30T04:38:29.803Z,3.20
2019-03-30T04:40:56.553Z,3.20
2019-03-30T04:43:23.400Z,3.10
2019-03-30T04:45:50.347Z,3.20
2019-03-30T04:48:17.293Z,3.20
2019-03-30T04:50:43.995Z,3.20
2019-03-30T04:53:10.786Z,3.30
2019-03-30T04:55:38.432Z,3.30
2019-03-30T04:58:08.885Z,3.20
2019-03-30T05:00:32.119Z,3.20
2019-03-30T05:02:58.857Z,3.30
2019-03-30T05:05:25.622Z,3.20
2019-03-30T05:07:52.441Z,3.20
2019-03-30T05:10:19.123Z,3.30
2019-03-30T05:12:46.027Z,3.40
2019-03-30T05:15:13.073Z,3.60
2019-03-30T05:17:47.347Z,3.90
2019-03-30T05:20:08.195Z,4.20
2019-03-30T05:22:35.011Z,4.20
2019-03-30T05:25:01.787Z,4.30
2019-03-30T05:27:28.561Z,4.50
2019-03-30T05:29:56.283Z,4.80
2019-03-30T05:32:23.134Z,4.70
2019-03-30T05:34:51.404Z,4.90
2019-03-30T05:37:18.241Z,4.90
2019-03-30T05:39:44.985Z,4.90
2019-03-30T05:42:11.935Z,4.80
2019-03-30T05:44:38.644Z,4.60
2019-03-30T05:47:05.513Z,4.60
2019-03-30T05:49:32.355Z,4.50
2019-03-30T05:51:59.198Z,4.60
2019-03-30T05:54:25.938Z,4.60
2019-03-30T05:56:52.781Z,4.60
2019-03-30T05:59:19.647Z,4.80
2019-03-30T06:01:46.366Z,5.10
2019-03-30T06:04:13.209Z,5.50
2019-03-30T06:06:39.949Z,5.80
2019-03-30T06:09:06.795Z,6.10
2019-03-30T06:11:33.633Z,6.10
2019-03-30T06:14:00.476Z,6.50
2019-03-30T06:16:27.310Z,7.60
2019-03-30T06:18:54.167Z,8.40
2019-03-30T06:21:21.776Z,8.90
2019-03-30T06:23:48.845Z,8.90
2019-03-30T06:26:15.480Z,8.60
2019-03-30T06:28:42.168Z,8.40
2019-03-30T06:31:08.878Z,8.10
2019-03-30T06:33:35.737Z,8.00
2019-03-30T06:36:02.678Z,7.60
2019-03-30T06:38:29.526Z,7.50
2019-03-30T06:40:56.261Z,7.60
2019-03-30T06:43:23.012Z,8.10
2019-03-30T06:45:49.842Z,8.40
2019-03-30T06:48:16.580Z,8.50
2019-03-30T06:50:43.424Z,8.40
2019-03-30T06:53:10.273Z,8.30
2019-03-30T06:55:37.178Z,8.30
2019-03-30T06:58:04.033Z,8.10
2019-03-30T07:00:30.802Z,7.70
2019-03-30T07:02:57.643Z,7.90
2019-03-30T07:05:24.592Z,8.10
2019-03-30T07:07:51.536Z,8.60
2019-03-30T07:10:18.489Z,9.30
2019-03-30T07:12:45.425Z,10.00
2019-03-30T07:15:12.164Z,10.00
2019-03-30T07:17:39.006Z,9.60
2019-03-30T07:20:05.954Z,9.40
2019-03-30T07:22:32.673Z,9.20
2019-03-30T07:24:59.538Z,9.50
2019-03-30T07:27:26.381Z,9.90
2019-03-30T07:29:53.074Z,10.30
2019-03-30T07:32:19.894Z,11.00
2019-03-30T07:34:46.572Z,11.40
2019-03-30T07:37:13.281Z,10.70
2019-03-30T07:39:40.793Z,10.90
2019-03-30T07:42:07.619Z,10.90
2019-03-30T07:44:34.296Z,10.80
2019-03-30T07:47:01.063Z,10.80
2019-03-30T07:49:28.508Z,12.30
2019-03-30T07:51:55.945Z,12.40
2019-03-30T07:54:22.789Z,12.40
2019-03-30T07:56:49.474Z,12.50
2019-03-30T07:59:16.265Z,12.50
2019-03-30T08:01:43.027Z,12.70
2019-03-30T08:04:10.129Z,12.20
2019-03-30T08:06:37.581Z,12.00
2019-03-30T08:09:04.580Z,11.60
2019-03-30T08:11:32.217Z,11.10
2019-03-30T08:13:59.162Z,11.10
2019-03-30T08:16:25.883Z,10.80
2019-03-30T08:18:52.625Z,11.00
2019-03-30T08:21:19.897Z,11.80
2019-03-30T08:23:46.645Z,11.90
2019-03-30T08:26:14.001Z,11.60
2019-03-30T08:28:41.055Z,11.20
2019-03-30T08:31:08.943Z,11.10
2019-03-30T08:33:42.146Z,10.70
2019-03-30T08:36:10.287Z,10.70
2019-03-30T08:38:38.160Z,10.80
2019-03-30T08:41:05.780Z,12.10
2019-03-30T08:43:32.532Z,12.10
2019-03-30T08:45:59.439Z,12.70
2019-03-30T08:48:27.696Z,12.90
2019-03-30T08:50:54.557Z,13.50
2019-03-30T08:53:22.079Z,11.60
2019-03-30T08:55:49.882Z,11.40
2019-03-30T08:58:16.619Z,11.40
2019-03-30T09:00:43.381Z,11.80
2019-03-30T09:03:10.245Z,13.20
2019-03-30T09:05:38.356Z,13.10
2019-03-30T09:08:05.891Z,13.20
2019-03-30T09:10:32.714Z,13.10
2019-03-30T09:12:59.414Z,13.30
2019-03-30T09:15:26.300Z,13.10
2019-03-30T09:17:53.400Z,12.50
2019-03-30T09:20:20.492Z,12.80
2019-03-30T09:22:48.321Z,12.50
2019-03-30T09:25:15.088Z,12.60
2019-03-30T09:27:41.818Z,11.90
2019-03-30T09:30:09.375Z,11.80
2019-03-30T09:32:37.097Z,11.50
2019-03-30T09:35:05.926Z,11.50
2019-03-30T09:37:32.649Z,11.50
2019-03-30T09:40:00.372Z,12.20
2019-03-30T09:42:26.953Z,12.20
2019-03-30T09:47:26.655Z,11.90
2019-03-30T09:49:53.717Z,12.20
2019-03-30T09:52:21.295Z,12.90
2019-03-30T09:54:47.988Z,12.90
2019-03-30T09:57:16.379Z,13.00
2019-03-30T09:59:43.935Z,12.90
2019-03-30T10:02:10.866Z,12.60
2019-03-30T10:04:37.953Z,13.00
2019-03-30T10:07:05.437Z,12.80
2019-03-30T10:09:32.228Z,12.80
2019-03-30T10:11:58.939Z,12.90
2019-03-30T10:14:33.157Z,13.20
2019-03-30T10:17:01.136Z,12.90
2019-03-30T10:19:29.639Z,12.30
2019-03-30T10:21:56.412Z,12.30
2019-03-30T10:24:37.180Z,11.90
2019-03-30T10:26:50.550Z,12.40
2019-03-30T10:29:17.239Z,12.50
2019-03-30T10:31:44.682Z,13.40
2019-03-30T10:34:11.498Z,13.40
2019-03-30T10:36:38.248Z,13.20
2019-03-30T10:39:04.994Z,12.90
2019-03-30T10:41:31.824Z,12.60
2019-03-30T10:43:58.601Z,12.10
2019-03-30T10:46:25.407Z,12.30
2019-03-30T10:48:56.503Z,12.20
2019-03-30T10:51:23.858Z,12.10
2019-03-30T10:53:50.748Z,12.30
2019-03-30T10:56:17.695Z,12.30
2019-03-30T10:58:44.541Z,12.00
2019-03-30T11:01:11.486Z,11.90
2019-03-30T11:03:38.227Z,11.70
2019-03-30T11:06:04.964Z,11.80
2019-03-30T11:08:31.813Z,12.10
2019-03-30T11:10:58.563Z,11.90
2019-03-30T11:13:25.388Z,12.20
2019-03-30T11:15:52.348Z,12.50
2019-03-30T11:18:19.179Z,12.30
2019-03-30T11:20:45.892Z,12.00
2019-03-30T11:23:12.762Z,11.90
2019-03-30T11:25:39.511Z,11.70
2019-03-30T11:28:06.246Z,11.50
2019-03-30T11:30:33.084Z,11.50
2019-03-30T11:33:00.032Z,11.60
2019-03-30T11:35:26.703Z,11.50
2019-03-30T11:37:53.415Z,11.60
2019-03-30T11:40:20.255Z,11.70
2019-03-30T11:42:46.912Z,11.60
2019-03-30T11:45:13.639Z,11.70
2019-03-30T11:47:40.475Z,11.60
2019-03-30T11:50:07.227Z,11.50
2019-03-30T11:52:33.956Z,11.60
2019-03-30T11:55:00.900Z,11.50
2019-03-30T11:57:27.587Z,11.60
2019-03-30T11:59:54.590Z,11.60
2019-03-30T12:02:28.024Z,11.90
2019-03-30T12:04:48.086Z,11.90
2019-03-30T12:07:14.865Z,12.00
2019-03-30T12:09:42.368Z,12.80
2019-03-30T12:12:09.207Z,12.80
2019-03-30T12:14:35.954Z,12.90
2019-03-30T12:17:02.701Z,12.70
2019-03-30T12:19:30.375Z,12.80
2019-03-30T12:21:57.273Z,12.80
2019-03-30T12:24:23.975Z,12.90
2019-03-30T12:26:51.601Z,13.40
2019-03-30T12:29:18.364Z,13.30
2019-03-30T12:31:45.128Z,13.00
2019-03-30T12:34:13.206Z,12.50
2019-03-30T12:36:39.897Z,12.40
2019-03-30T12:39:07.363Z,12.70
2019-03-30T12:41:34.194Z,12.70
2019-03-30T12:44:00.934Z,12.70
2019-03-30T12:46:27.679Z,12.70
2019-03-30T12:48:57.606Z,12.90
2019-03-30T12:51:25.103Z,12.90
2019-03-30T12:53:51.865Z,12.90
2019-03-30T12:56:19.494Z,12.70
2019-03-30T12:58:46.397Z,12.70
2019-03-30T13:03:41.687Z,12.50
2019-03-30T13:06:09.455Z,12.40
2019-03-30T13:08:36.197Z,12.80
2019-03-30T13:11:03.032Z,12.90
2019-03-30T13:13:30.005Z,12.70
2019-03-30T13:15:56.743Z,12.50
2019-03-30T13:18:23.438Z,12.20
2019-03-30T13:20:50.884Z,12.30
2019-03-30T13:23:17.677Z,12.20
2019-03-30T13:25:44.373Z,12.30
2019-03-30T13:28:11.105Z,12.20
2019-03-30T13:30:38.032Z,12.30
2019-03-30T13:33:04.944Z,12.40
2019-03-30T13:35:32.034Z,12.30
2019-03-30T13:37:59.267Z,12.20
2019-03-30T13:40:26.008Z,12.10
2019-03-30T13:42:52.765Z,12.10
2019-03-30T13:45:19.552Z,12.00
2019-03-30T13:47:46.267Z,12.00
2019-03-30T13:50:13.067Z,12.00
2019-03-30T13:52:39.744Z,12.10
2019-03-30T13:55:06.485Z,12.10
2019-03-30T13:57:34.216Z,11.80
2019-03-30T14:00:01.387Z,11.80
2019-03-30T14:02:28.249Z,11.80
2019-03-30T14:04:55.017Z,11.70
2019-03-30T14:07:22.240Z,11.80
2019-03-30T14:09:49.767Z,11.40
2019-03-30T14:12:16.498Z,11.40
2019-03-30T14:14:43.341Z,11.70
2019-03-30T14:17:10.596Z,11.80
2019-03-30T14:19:37.341Z,11.80
2019-03-30T14:22:04.902Z,11.70
2019-03-30T14:24:32.533Z,11.60
2019-03-30T14:26:59.399Z,11.50
2019-03-30T14:29:26.242Z,11.30
2019-03-30T14:31:53.086Z,11.20
2019-03-30T14:34:20.240Z,10.90
2019-03-30T14:36:46.959Z,10.70
2019-03-30T14:39:15.459Z,10.70
2019-03-30T14:41:42.506Z,10.70
2019-03-30T14:44:10.065Z,10.40
2019-03-30T14:46:36.902Z,10.40
2019-03-30T14:49:04.265Z,10.30
2019-03-30T14:51:31.105Z,10.30
2019-03-30T14:53:58.254Z,10.20
2019-03-30T14:56:25.204Z,10.20
2019-03-30T14:58:52.044Z,10.20
2019-03-30T15:01:19.647Z,10.20
2019-03-30T15:03:46.402Z,10.20
2019-03-30T15:06:13.860Z,10.10
2019-03-30T15:08:41.313Z,10.10
2019-03-30T15:11:09.016Z,10.10
2019-03-30T15:13:35.762Z,10.10
2019-03-30T15:16:02.559Z,9.90
2019-03-30T15:18:30.052Z,9.80
2019-03-30T15:20:56.805Z,9.70
2019-03-30T15:23:26.866Z,9.70
2019-03-30T15:25:50.596Z,9.60
2019-03-30T15:28:17.440Z,9.60
2019-03-30T15:30:44.385Z,9.60
2019-03-30T15:33:11.225Z,9.70
2019-03-30T15:35:38.067Z,9.70
2019-03-30T15:38:05.742Z,9.80
2019-03-30T15:40:32.572Z,9.80
2019-03-30T15:42:59.312Z,9.80
2019-03-30T15:45:26.157Z,9.80
2019-03-30T15:47:52.896Z,9.80
2019-03-30T15:50:19.763Z,9.80
2019-03-30T15:52:46.583Z,9.80
2019-03-30T15:55:13.322Z,9.70
2019-03-30T15:57:40.040Z,9.60
2019-03-30T16:00:07.731Z,9.60
2019-03-30T16:02:34.673Z,9.50
2019-03-30T16:05:02.438Z,9.40
2019-03-30T16:07:29.283Z,9.40
2019-03-30T16:09:56.022Z,9.20
2019-03-30T16:12:22.862Z,9.20
2019-03-30T16:14:49.602Z,9.10
2019-03-30T16:17:17.159Z,9.10
2019-03-30T16:19:44.008Z,9.00
2019-03-30T16:22:10.684Z,9.00
2019-03-30T16:24:37.389Z,9.00
2019-03-30T16:27:04.161Z,8.90
2019-03-30T16:29:31.665Z,8.90
2019-03-30T16:31:58.432Z,8.90
2019-03-30T16:34:25.158Z,8.90
2019-03-30T16:36:51.848Z,8.90
2019-03-30T16:39:19.350Z,9.00
2019-03-30T16:41:46.138Z,9.00
2019-03-30T16:44:12.948Z,9.00
2019-03-30T16:46:39.744Z,9.10
2019-03-30T16:49:07.247Z,9.10
2019-03-30T16:51:34.009Z,9.10
2019-03-30T16:54:01.557Z,9.00
2019-03-30T16:56:28.292Z,9.00
2019-03-30T16:58:54.978Z,9.00
2019-03-30T17:01:22.469Z,8.90
2019-03-30T17:03:49.176Z,8.90
2019-03-30T17:06:16.013Z,8.90
2019-03-30T17:08:43.479Z,8.90
2019-03-30T17:11:10.924Z,8.90
2019-03-30T17:13:37.598Z,8.80
2019-03-30T17:16:04.380Z,8.90
2019-03-30T17:18:31.138Z,8.80
2019-03-30T17:20:57.906Z,8.90
2019-03-30T17:23:24.635Z,8.90
2019-03-30T17:25:52.091Z,8.90
2019-03-30T17:28:19.572Z,8.90
2019-03-30T17:30:47.095Z,8.80
2019-03-30T17:33:14.618Z,8.80
2019-03-30T17:35:41.332Z,8.80
2019-03-30T17:38:08.037Z,8.90
2019-03-30T17:40:35.547Z,8.80
2019-03-30T17:43:02.302Z,8.80
2019-03-30T17:45:28.996Z,8.80
2019-03-30T17:47:56.504Z,8.80
2019-03-30T17:50:23.339Z,8.80
2019-03-30T17:52:50.048Z,8.80
2019-03-30T17:55:16.927Z,8.90
2019-03-30T17:57:43.670Z,8.80
2019-03-30T18:00:10.671Z,8.70
2019-03-30T18:02:38.376Z,8.70
2019-03-30T18:05:05.218Z,8.70
2019-03-30T18:07:32.784Z,8.60
2019-03-30T18:10:03.125Z,8.60
2019-03-30T18:12:26.362Z,8.60
2019-03-30T18:14:53.102Z,8.60
2019-03-30T18:17:20.075Z,8.50
2019-03-30T18:19:47.610Z,8.40
2019-03-30T18:22:14.450Z,8.40
2019-03-30T18:24:41.295Z,8.40
2019-03-30T18:27:08.134Z,8.40
2019-03-30T18:29:34.980Z,8.40
2019-03-30T18:32:01.927Z,8.40
2019-03-30T18:34:28.969Z,8.20
2019-03-30T18:36:55.815Z,8.20
2019-03-30T18:39:22.616Z,8.30
2019-03-30T18:41:49.332Z,8.30
2019-03-30T18:44:16.243Z,8.30
2019-03-30T18:46:42.986Z,8.30
2019-03-30T18:49:09.690Z,8.30
2019-03-30T18:51:36.459Z,8.30
2019-03-30T18:54:03.229Z,8.30
2019-03-30T18:56:30.012Z,8.30
2019-03-30T18:58:57.492Z,8.20
2019-03-30T19:01:24.229Z,8.20
2019-03-30T19:03:51.677Z,8.30
2019-03-30T19:06:18.375Z,8.30
2019-03-30T19:08:45.184Z,8.20
2019-03-30T19:11:11.922Z,8.20
2019-03-30T19:13:38.681Z,8.10
2019-03-30T19:16:05.380Z,8.10
2019-03-30T19:18:32.064Z,8.10
2019-03-30T19:20:58.796Z,8.10
2019-03-30T19:23:26.285Z,8.10
2019-03-30T19:25:53.850Z,8.00
2019-03-30T19:28:21.311Z,8.00
2019-03-30T19:30:48.738Z,8.00
2019-03-30T19:33:15.497Z,8.00
2019-03-30T19:35:43.016Z,8.00
2019-03-30T19:38:11.059Z,8.00
2019-03-30T19:40:36.603Z,8.00
2019-03-30T19:43:05.483Z,7.90
2019-03-30T19:45:32.537Z,7.90
2019-03-30T19:47:59.379Z,7.80
2019-03-30T19:50:26.224Z,7.70
2019-03-30T19:52:52.992Z,7.80
2019-03-30T19:55:22.063Z,7.70
2019-03-30T19:57:49.886Z,7.60
2019-03-30T20:00:18.003Z,7.60
2019-03-30T20:02:45.046Z,7.60
2019-03-30T20:05:11.994Z,7.60
2019-03-30T20:07:38.837Z,7.50
2019-03-30T20:10:05.781Z,7.40
2019-03-30T20:12:32.621Z,7.40
2019-03-30T20:14:59.363Z,7.40
2019-03-30T20:17:26.247Z,7.40
2019-03-30T20:19:54.075Z,7.30
2019-03-30T20:22:20.868Z,7.30
2019-03-30T20:24:47.663Z,7.20
2019-03-30T20:27:14.397Z,7.20
2019-03-30T20:29:41.342Z,7.10
2019-03-30T20:32:08.086Z,7.10
2019-03-30T20:34:34.933Z,7.00
2019-03-30T20:37:01.771Z,7.00
2019-03-30T20:39:28.612Z,7.00
2019-03-30T20:41:55.456Z,6.90
2019-03-30T20:44:22.216Z,6.90
2019-03-30T20:46:50.440Z,6.90
2019-03-30T20:49:17.181Z,6.90
2019-03-30T20:51:44.064Z,6.80
2019-03-30T20:54:10.796Z,6.80
2019-03-30T20:56:37.542Z,6.70
2019-03-30T20:59:04.380Z,6.70
2019-03-30T21:01:31.118Z,6.50
2019-03-30T21:03:57.823Z,6.40
2019-03-30T21:06:24.538Z,6.40
2019-03-30T21:08:51.343Z,6.40
2019-03-30T21:11:19.005Z,6.30
2019-03-30T21:13:45.770Z,6.30
2019-03-30T21:16:12.587Z,6.30
2019-03-30T21:18:39.430Z,6.30
2019-03-30T21:21:09.019Z,6.30
2019-03-30T21:23:32.928Z,6.20
2019-03-30T21:25:59.756Z,6.20
2019-03-30T21:28:26.500Z,6.20
2019-03-30T21:30:53.320Z,6.10
2019-03-30T21:33:20.208Z,6.10
2019-03-30T21:35:48.461Z,6.10
2019-03-30T21:38:15.302Z,6.00
2019-03-30T21:40:42.147Z,6.10
2019-03-30T21:43:09.704Z,6.00
2019-03-30T21:45:36.551Z,6.00
2019-03-30T21:48:03.493Z,6.00
2019-03-30T21:50:30.209Z,6.20
2019-03-30T21:52:56.972Z,6.10
2019-03-30T21:55:23.795Z,6.10
2019-03-30T21:57:50.545Z,5.90
2019-03-30T22:00:28.257Z,6.00
2019-03-30T22:02:55.099Z,5.90
2019-03-30T22:05:21.838Z,5.90
2019-03-30T22:07:48.687Z,5.70
2019-03-30T22:10:15.525Z,5.80
2019-03-30T22:12:43.201Z,5.60
2019-03-30T22:15:10.135Z,5.60
2019-03-30T22:17:36.873Z,5.50
2019-03-30T22:20:03.640Z,5.50
2019-03-30T22:22:30.378Z,5.50
2019-03-30T22:24:58.631Z,5.30
2019-03-30T22:27:25.453Z,5.20
2019-03-30T22:29:52.215Z,5.20
2019-03-30T22:32:19.054Z,5.20
2019-03-30T22:34:45.891Z,5.10
2019-03-30T22:37:12.639Z,5.10
2019-03-30T22:39:39.382Z,5.10
2019-03-30T22:42:06.225Z,5.00
2019-03-30T22:44:32.963Z,4.90
2019-03-30T22:46:59.670Z,5.00
2019-03-30T22:49:26.548Z,4.80
2019-03-30T22:51:53.288Z,4.70
2019-03-30T22:54:20.199Z,4.60
2019-03-30T22:56:47.896Z,4.30
2019-03-30T22:59:14.633Z,4.30
2019-03-30T23:01:41.477Z,4.30
2019-03-30T23:04:08.218Z,4.20
2019-03-30T23:06:34.959Z,4.10
2019-03-30T23:09:01.689Z,4.00
2019-03-30T23:11:28.542Z,3.80
2019-03-30T23:13:56.083Z,3.60
2019-03-30T23:16:23.590Z,3.60
2019-03-30T23:18:50.457Z,3.60
2019-03-30T23:21:17.875Z,3.50
2019-03-30T23:23:44.569Z,3.50
2019-03-30T23:26:12.079Z,3.40
2019-03-30T23:28:38.763Z,3.30
2019-03-30T23:31:06.338Z,3.30
2019-03-30T23:33:33.087Z,3.20
2019-03-30T23:35:59.838Z,3.20
2019-03-30T23:38:26.558Z,3.10
2019-03-30T23:40:53.464Z,3.10
2019-03-30T23:43:20.987Z,3.00
2019-03-30T23:45:47.931Z,3.00
2019-03-30T23:48:14.774Z,3.00
2019-03-30T23:50:41.546Z,2.90
2019-03-30T23:53:08.322Z,2.80
2019-03-30T23:55:35.188Z,2.80
2019-03-30T23:58:01.855Z,2.80
